Time;durP1;ratioP1;P1;durP2;ratioP2;P2;SDS_P1;SDS_P2;PMS_P1;PMS_P2;Temp;Humidity;BMP_temperature;BMP_pressure;BME280_temperature;BME280_humidity;BME280_pressure;Samples;Min_cycle;Max_cycle;Signal;HPM_P1;HPM_P2
2023/07/10 00:00:20;;;;;;;2.42;2.22;;;;;;;;;;6189138;23;20245;-83
2023/07/10 00:02:48;;;;;;;3.28;2.80;;;;;;;;;;6188276;23;20261;-84
2023/07/10 00:05:18;;;;;;;2.38;2.13;;;;;;;;;;6189110;23;20212;-83
2023/07/10 00:07:46;;;;;;;2.40;2.13;;;;;;;;;;6189815;23;20274;-83
2023/07/10 00:10:17;;;;;;;3.72;2.40;;;;;;;;;;6188603;23;20198;-84
2023/07/10 00:12:45;;;;;;;2.72;2.53;;;;;;;;;;6189428;23;20546;-83
2023/07/10 00:15:21;;;;;;;2.67;2.00;;;;;;;;;;6189990;23;20209;-83
2023/07/10 00:17:50;;;;;;;3.20;2.22;;;;;;;;;;6189911;23;20242;-83
2023/07/10 00:20:21;;;;;;;2.47;2.28;;;;;;;;;;6189716;23;20206;-83
2023/07/10 00:22:48;;;;;;;2.70;2.50;;;;;;;;;;6188988;23;20250;-83
2023/07/10 00:25:17;;;;;;;2.35;2.15;;;;;;;;;;6190254;23;20201;-84
2023/07/10 00:27:45;;;;;;;3.28;2.97;;;;;;;;;;6187833;23;20186;-83
2023/07/10 00:30:20;;;;;;;2.40;2.20;;;;;;;;;;6188129;23;20270;-83
2023/07/10 00:32:52;;;;;;;2.42;2.20;;;;;;;;;;6189355;23;20526;-84
2023/07/10 00:35:20;;;;;;;2.10;2.00;;;;;;;;;;6190697;23;20170;-83
2023/07/10 00:38:00;;;;;;;1.60;1.50;;;;;;;;;;6188747;23;20471;-83
2023/07/10 00:40:30;;;;;;;1.60;1.50;;;;;;;;;;6190023;23;20233;-83
2023/07/10 00:43:03;;;;;;;1.83;1.73;;;;;;;;;;6189066;23;20226;-84
2023/07/10 00:45:32;;;;;;;1.85;1.75;;;;;;;;;;6189014;23;20237;-83
2023/07/10 00:48:06;;;;;;;2.00;1.85;;;;;;;;;;6189046;23;20209;-83
2023/07/10 00:50:38;;;;;;;3.92;2.22;;;;;;;;;;6188965;23;20226;-83
2023/07/10 00:53:13;;;;;;;1.88;1.77;;;;;;;;;;6188649;23;20210;-82
2023/07/10 00:55:41;;;;;;;2.72;2.28;;;;;;;;;;6187412;23;20186;-82
2023/07/10 00:58:22;;;;;;;3.08;2.70;;;;;;;;;;6188354;23;20202;-82
2023/07/10 01:01:06;;;;;;;2.70;2.45;;;;;;;;;;6188151;23;20229;-83
2023/07/10 01:03:35;;;;;;;2.50;2.30;;;;;;;;;;6188291;23;20214;-83
2023/07/10 01:06:08;;;;;;;2.10;1.90;;;;;;;;;;6188446;23;20662;-83
2023/07/10 01:08:36;;;;;;;2.70;2.50;;;;;;;;;;6190162;23;20613;-83
2023/07/10 01:11:04;;;;;;;2.63;2.17;;;;;;;;;;6188354;23;20229;-83
2023/07/10 01:13:32;;;;;;;2.00;1.90;;;;;;;;;;6188617;23;20245;-83
2023/07/10 01:16:01;;;;;;;2.95;1.88;;;;;;;;;;6188651;23;20178;-83
2023/07/10 01:18:29;;;;;;;3.30;2.53;;;;;;;;;;6189062;23;20257;-83
2023/07/10 01:21:19;;;;;;;2.95;2.60;;;;;;;;;;6188733;23;20233;-82
2023/07/10 01:23:47;;;;;;;1.80;1.70;;;;;;;;;;6187236;23;20189;-83
2023/07/10 01:26:14;;;;;;;2.47;2.00;;;;;;;;;;6189014;23;20500;-83
2023/07/10 01:28:42;;;;;;;2.50;2.28;;;;;;;;;;6187570;23;20253;-83
2023/07/10 01:31:12;;;;;;;2.22;2.00;;;;;;;;;;6188677;23;20252;-83
2023/07/10 01:33:43;;;;;;;1.70;1.60;;;;;;;;;;6189291;23;20170;-82
2023/07/10 01:36:15;;;;;;;2.15;2.05;;;;;;;;;;6188006;23;20194;-82
2023/07/10 01:38:46;;;;;;;1.92;1.83;;;;;;;;;;6187811;23;20237;-83
2023/07/10 01:41:24;;;;;;;3.05;2.42;;;;;;;;;;6187727;23;20204;-83
2023/07/10 01:43:51;;;;;;;1.88;1.77;;;;;;;;;;6188089;23;20694;-83
2023/07/10 01:46:21;;;;;;;2.70;2.50;;;;;;;;;;6186936;23;20198;-83
2023/07/10 01:48:51;;;;;;;5.38;2.47;;;;;;;;;;6188425;23;20210;-83
2023/07/10 01:51:22;;;;;;;3.70;3.38;;;;;;;;;;6186711;23;20225;-83
2023/07/10 01:53:49;;;;;;;3.10;2.83;;;;;;;;;;6187063;23;20226;-83
2023/07/10 01:56:19;;;;;;;2.80;2.53;;;;;;;;;;6186078;23;20261;-83
2023/07/10 01:58:46;;;;;;;4.07;2.55;;;;;;;;;;6185907;23;20178;-84
2023/07/10 02:01:14;;;;;;;2.83;2.58;;;;;;;;;;6186245;23;20190;-83
2023/07/10 02:03:41;;;;;;;2.50;2.30;;;;;;;;;;6185220;23;20225;-84
2023/07/10 02:06:09;;;;;;;2.50;2.30;;;;;;;;;;6186528;23;20202;-84
2023/07/10 02:08:37;;;;;;;2.75;2.55;;;;;;;;;;6186140;23;20205;-83
2023/07/10 02:11:05;;;;;;;2.28;2.17;;;;;;;;;;6185643;23;20194;-83
2023/07/10 02:13:32;;;;;;;2.20;2.00;;;;;;;;;;6186076;23;20198;-83
2023/07/10 02:16:04;;;;;;;3.22;2.78;;;;;;;;;;6188180;23;20672;-82
2023/07/10 02:18:32;;;;;;;2.05;1.90;;;;;;;;;;6190824;23;20166;-82
2023/07/10 02:20:59;;;;;;;1.67;1.58;;;;;;;;;;6188895;23;20229;-83
2023/07/10 02:23:27;;;;;;;2.15;1.88;;;;;;;;;;6189369;23;20273;-83
2023/07/10 02:25:55;;;;;;;2.45;2.13;;;;;;;;;;6189568;23;20213;-82
2023/07/10 02:28:23;;;;;;;3.33;1.90;;;;;;;;;;6188774;23;20206;-83
2023/07/10 02:30:51;;;;;;;2.50;2.30;;;;;;;;;;6188702;23;20677;-82
2023/07/10 02:33:19;;;;;;;2.92;2.00;;;;;;;;;;6188277;23;20254;-82
2023/07/10 02:35:46;;;;;;;2.42;1.95;;;;;;;;;;6187927;23;20174;-83
2023/07/10 02:38:14;;;;;;;2.58;2.22;;;;;;;;;;6188249;23;20213;-82
2023/07/10 02:40:42;;;;;;;2.72;2.42;;;;;;;;;;6189232;23;20232;-82
2023/07/10 02:43:12;;;;;;;2.95;2.50;;;;;;;;;;6188778;23;20205;-83
2023/07/10 02:45:39;;;;;;;1.80;1.65;;;;;;;;;;6188622;23;20649;-82
2023/07/10 02:48:07;;;;;;;2.28;2.03;;;;;;;;;;6188756;23;20174;-83
2023/07/10 02:50:35;;;;;;;2.42;2.17;;;;;;;;;;6190008;23;20721;-84
2023/07/10 02:53:02;;;;;;;2.40;2.20;;;;;;;;;;6188875;23;20230;-83
2023/07/10 02:55:30;;;;;;;1.92;1.83;;;;;;;;;;6191647;23;20209;-83
2023/07/10 02:57:57;;;;;;;3.88;2.15;;;;;;;;;;6189259;23;20185;-84
2023/07/10 03:00:26;;;;;;;2.22;2.00;;;;;;;;;;6189562;23;20233;-84
2023/07/10 03:02:55;;;;;;;3.55;2.30;;;;;;;;;;6189158;23;20202;-83
2023/07/10 03:05:22;;;;;;;2.40;2.20;;;;;;;;;;6191149;23;20273;-84
2023/07/10 03:07:50;;;;;;;2.88;2.47;;;;;;;;;;6191547;23;20206;-84
2023/07/10 03:10:18;;;;;;;2.33;2.13;;;;;;;;;;6189795;23;20230;-84
2023/07/10 03:12:46;;;;;;;2.20;1.98;;;;;;;;;;6189093;23;20489;-84
2023/07/10 03:15:13;;;;;;;2.65;2.17;;;;;;;;;;6190311;23;20555;-82
2023/07/10 03:17:42;;;;;;;2.58;2.15;;;;;;;;;;6190397;23;20257;-84
2023/07/10 03:20:11;;;;;;;2.45;2.25;;;;;;;;;;6189585;23;20672;-84
2023/07/10 03:22:39;;;;;;;2.35;2.15;;;;;;;;;;6189349;23;20182;-84
2023/07/10 03:25:08;;;;;;;2.85;2.47;;;;;;;;;;6190840;23;20277;-84
2023/07/10 03:27:35;;;;;;;3.28;2.92;;;;;;;;;;6190120;23;20253;-83
2023/07/10 03:30:03;;;;;;;2.30;2.10;;;;;;;;;;6189560;23;20233;-84
2023/07/10 03:32:30;;;;;;;2.60;1.90;;;;;;;;;;6187914;23;20464;-84
2023/07/10 03:34:59;;;;;;;2.15;2.05;;;;;;;;;;6188916;23;20546;-83
2023/07/10 03:37:26;;;;;;;3.25;3.05;;;;;;;;;;6188550;23;20645;-83
2023/07/10 03:39:54;;;;;;;1.92;1.80;;;;;;;;;;6188078;23;20664;-83
2023/07/10 03:42:21;;;;;;;2.58;2.38;;;;;;;;;;6187329;23;20201;-83
2023/07/10 03:44:49;;;;;;;3.05;2.65;;;;;;;;;;6187943;23;20277;-83
2023/07/10 03:47:16;;;;;;;2.60;2.40;;;;;;;;;;6188552;23;20651;-83
2023/07/10 03:49:44;;;;;;;2.35;2.13;;;;;;;;;;6188044;23;20249;-82
2023/07/10 03:52:12;;;;;;;2.45;2.22;;;;;;;;;;6187089;23;20206;-83
2023/07/10 03:54:40;;;;;;;2.38;2.17;;;;;;;;;;6188029;23;20262;-83
2023/07/10 03:57:08;;;;;;;3.05;2.10;;;;;;;;;;6187241;23;20202;-83
2023/07/10 03:59:35;;;;;;;1.70;1.60;;;;;;;;;;6188287;23;20179;-83
2023/07/10 04:02:03;;;;;;;2.05;1.92;;;;;;;;;;6188377;23;20226;-83
2023/07/10 04:04:30;;;;;;;1.70;1.60;;;;;;;;;;6186726;23;20230;-83
2023/07/10 04:06:58;;;;;;;1.67;1.58;;;;;;;;;;6186747;23;20228;-83
2023/07/10 04:09:26;;;;;;;1.63;1.52;;;;;;;;;;6188398;23;20574;-84
2023/07/10 04:11:54;;;;;;;1.65;1.55;;;;;;;;;;6187992;23;20857;-84
2023/07/10 04:14:21;;;;;;;2.50;2.30;;;;;;;;;;6187375;23;20170;-84
2023/07/10 04:16:53;;;;;;;2.00;1.67;;;;;;;;;;6187673;23;20713;-84
2023/07/10 04:19:20;;;;;;;2.20;2.05;;;;;;;;;;6188148;23;20162;-84
2023/07/10 04:21:48;;;;;;;4.53;2.58;;;;;;;;;;6188650;23;20283;-84
2023/07/10 04:24:16;;;;;;;2.60;2.40;;;;;;;;;;6187637;23;20213;-84
2023/07/10 04:26:45;;;;;;;2.60;2.40;;;;;;;;;;6188846;23;20229;-84
2023/07/10 04:29:13;;;;;;;2.70;2.42;;;;;;;;;;6188465;23;20654;-84
2023/07/10 04:31:41;;;;;;;2.08;1.80;;;;;;;;;;6186664;23;20273;-84
2023/07/10 04:34:10;;;;;;;2.28;2.08;;;;;;;;;;6188843;23;20706;-83
2023/07/10 04:36:38;;;;;;;2.38;2.05;;;;;;;;;;6189456;23;20228;-84
2023/07/10 04:39:05;;;;;;;2.90;2.53;;;;;;;;;;6187226;23;20175;-84
2023/07/10 04:41:32;;;;;;;2.83;2.55;;;;;;;;;;6187538;23;20272;-84
2023/07/10 04:44:01;;;;;;;4.70;4.18;;;;;;;;;;6188032;23;20220;-83
2023/07/10 04:46:29;;;;;;;4.40;4.00;;;;;;;;;;6187470;23;20195;-83
2023/07/10 04:48:57;;;;;;;6.47;4.55;;;;;;;;;;6188262;23;20181;-84
2023/07/10 04:51:24;;;;;;;3.35;3.05;;;;;;;;;;6188021;23;20281;-83
2023/07/10 04:53:51;;;;;;;4.32;3.92;;;;;;;;;;6188572;23;20209;-84
2023/07/10 04:56:20;;;;;;;6.15;3.25;;;;;;;;;;6188040;23;20297;-82
2023/07/10 04:58:52;;;;;;;3.03;2.67;;;;;;;;;;6188640;23;20604;-84
2023/07/10 05:01:23;;;;;;;4.35;3.95;;;;;;;;;;6189071;23;20253;-83
2023/07/10 05:03:51;;;;;;;4.72;4.32;;;;;;;;;;6188169;23;20261;-83
2023/07/10 05:06:19;;;;;;;5.47;4.85;;;;;;;;;;6187637;23;20194;-83
2023/07/10 05:08:48;;;;;;;6.07;5.47;;;;;;;;;;6188573;23;20206;-83
2023/07/10 05:11:16;;;;;;;4.93;4.53;;;;;;;;;;6187016;23;20201;-83
2023/07/10 05:13:43;;;;;;;6.07;5.47;;;;;;;;;;6187806;23;20253;-84
2023/07/10 05:16:11;;;;;;;8.50;7.32;;;;;;;;;;6187152;23;20206;-83
2023/07/10 05:18:40;;;;;;;7.25;6.55;;;;;;;;;;6187367;23;20209;-84
2023/07/10 05:21:07;;;;;;;8.20;7.45;;;;;;;;;;6186404;23;20239;-83
2023/07/10 05:23:35;;;;;;;8.18;7.38;;;;;;;;;;6186439;23;20255;-84
2023/07/10 05:26:06;;;;;;;9.68;8.77;;;;;;;;;;6186562;23;20205;-83
2023/07/10 05:28:35;;;;;;;7.10;6.32;;;;;;;;;;6187411;23;20242;-84
2023/07/10 05:31:06;;;;;;;6.78;6.18;;;;;;;;;;6187081;23;20599;-83
2023/07/10 05:33:34;;;;;;;4.65;4.25;;;;;;;;;;6187361;23;20611;-83
2023/07/10 05:36:06;;;;;;;7.13;6.53;;;;;;;;;;6186929;23;20175;-82
2023/07/10 05:38:35;;;;;;;7.90;5.90;;;;;;;;;;6187566;23;20159;-83
2023/07/10 05:41:03;;;;;;;8.55;7.65;;;;;;;;;;6188340;23;20277;-85
2023/07/10 05:43:32;;;;;;;5.85;5.35;;;;;;;;;;6188932;23;20569;-86
2023/07/10 05:46:00;;;;;;;9.15;8.20;;;;;;;;;;6189247;23;20217;-85
2023/07/10 05:48:28;;;;;;;8.73;7.93;;;;;;;;;;6189190;23;20230;-85
2023/07/10 05:50:56;;;;;;;7.95;7.22;;;;;;;;;;6185049;23;20197;-84
2023/07/10 05:53:25;;;;;;;8.73;7.95;;;;;;;;;;6186807;23;20249;-86
2023/07/10 05:55:55;;;;;;;9.43;8.52;;;;;;;;;;6188283;23;20194;-85
2023/07/10 05:58:25;;;;;;;6.88;6.25;;;;;;;;;;6186663;23;20217;-86
2023/07/10 06:00:55;;;;;;;6.55;5.95;;;;;;;;;;6188856;23;20701;-86
2023/07/10 06:03:23;;;;;;;10.90;6.25;;;;;;;;;;6188752;23;20553;-85
2023/07/10 06:05:55;;;;;;;8.27;7.47;;;;;;;;;;6188728;23;20284;-85
2023/07/10 06:08:24;;;;;;;8.95;8.05;;;;;;;;;;6187879;23;20251;-85
2023/07/10 06:10:52;;;;;;;9.00;7.85;;;;;;;;;;6187863;23;20225;-85
2023/07/10 06:13:20;;;;;;;8.57;7.80;;;;;;;;;;6188312;23;20575;-84
2023/07/10 06:15:50;;;;;;;7.82;7.13;;;;;;;;;;6188462;23;20226;-85
2023/07/10 06:18:19;;;;;;;9.25;7.38;;;;;;;;;;6186694;23;20646;-86
2023/07/10 06:20:52;;;;;;;9.73;8.60;;;;;;;;;;6186661;23;20213;-84
2023/07/10 06:23:20;;;;;;;8.80;8.00;;;;;;;;;;6187853;23;20622;-85
2023/07/10 06:25:49;;;;;;;10.68;9.50;;;;;;;;;;6186300;23;20201;-84
2023/07/10 06:28:17;;;;;;;10.07;8.75;;;;;;;;;;6187166;23;20250;-85
2023/07/10 06:30:53;;;;;;;9.18;8.35;;;;;;;;;;6185439;23;20277;-85
2023/07/10 06:33:21;;;;;;;11.95;9.07;;;;;;;;;;6187240;23;20182;-84
2023/07/10 06:35:48;;;;;;;9.82;8.73;;;;;;;;;;6186659;23;20705;-86
2023/07/10 06:38:15;;;;;;;10.70;9.60;;;;;;;;;;6186297;23;20178;-87
2023/07/10 06:40:43;;;;;;;9.60;8.63;;;;;;;;;;6187198;23;20226;-86
2023/07/10 06:43:12;;;;;;;10.88;9.70;;;;;;;;;;6187295;23;20253;-87
2023/07/10 06:45:40;;;;;;;11.75;10.00;;;;;;;;;;6189242;23;20198;-86
2023/07/10 06:48:08;;;;;;;13.90;10.68;;;;;;;;;;6187348;23;20203;-87
2023/07/10 06:50:35;;;;;;;12.63;10.82;;;;;;;;;;6187257;23;20237;-86
2023/07/10 06:53:04;;;;;;;12.45;10.77;;;;;;;;;;6186449;23;20253;-85
2023/07/10 06:55:32;;;;;;;13.05;11.63;;;;;;;;;;6186919;23;20185;-87
2023/07/10 06:58:00;;;;;;;11.32;10.15;;;;;;;;;;6185868;23;20206;-84
2023/07/10 07:00:29;;;;;;;16.13;14.13;;;;;;;;;;6187897;23;20222;-85
2023/07/10 08:59:54;;;;;;;4.20;3.15;;;;;;;;;;6057692;23;20187;-84
2023/07/10 09:02:36;;;;;;;3.60;3.30;;;;;;;;;;6128960;23;20547;-82
2023/07/10 09:05:05;;;;;;;4.07;3.78;;;;;;;;;;6132213;23;20214;-82
2023/07/10 09:07:42;;;;;;;3.58;3.28;;;;;;;;;;6132496;23;20658;-87
2023/07/10 09:10:16;;;;;;;4.25;3.78;;;;;;;;;;6139035;23;20195;-86
2023/07/10 09:12:46;;;;;;;4.25;3.58;;;;;;;;;;6156439;23;20194;-87
2023/07/10 09:15:19;;;;;;;4.03;3.63;;;;;;;;;;6156994;23;20243;-84
2023/07/10 09:17:59;;;;;;;3.83;3.53;;;;;;;;;;6155237;23;20163;-87
2023/07/10 09:20:27;;;;;;;4.10;3.42;;;;;;;;;;6156553;23;20582;-87
2023/07/10 09:22:58;;;;;;;4.68;4.28;;;;;;;;;;6158248;23;20205;-87
2023/07/10 09:25:26;;;;;;;4.82;3.53;;;;;;;;;;6156151;23;20170;-87
2023/07/10 09:27:54;;;;;;;3.25;3.03;;;;;;;;;;6156582;23;20199;-87
2023/07/10 09:30:40;;;;;;;2.78;2.58;;;;;;;;;;6155462;23;20286;-86
2023/07/10 09:33:10;;;;;;;3.15;2.83;;;;;;;;;;6155459;23;20156;-85
2023/07/10 09:35:42;;;;;;;2.70;2.50;;;;;;;;;;6155343;23;20178;-87
2023/07/10 09:38:12;;;;;;;2.90;2.70;;;;;;;;;;6155948;23;20243;-87
2023/07/10 09:40:43;;;;;;;2.85;2.63;;;;;;;;;;6155534;23;20219;-88
2023/07/10 09:43:15;;;;;;;3.67;3.45;;;;;;;;;;6155879;23;20155;-88
2023/07/10 09:45:47;;;;;;;3.97;3.63;;;;;;;;;;6156003;23;20593;-87
2023/07/10 09:48:25;;;;;;;3.33;3.13;;;;;;;;;;6155814;23;20187;-88
2023/07/10 09:50:53;;;;;;;4.18;3.67;;;;;;;;;;6155747;23;20601;-87
2023/07/10 09:53:29;;;;;;;3.25;2.80;;;;;;;;;;6155643;23;20213;-88
2023/07/10 09:55:57;;;;;;;3.15;2.90;;;;;;;;;;6156074;23;20233;-88
2023/07/10 09:58:24;;;;;;;4.63;4.20;;;;;;;;;;6155424;23;20179;-87
2023/07/10 10:00:54;;;;;;;4.20;3.80;;;;;;;;;;6154583;23;20207;-88
2023/07/10 10:03:27;;;;;;;2.55;2.35;;;;;;;;;;6154775;23;20179;-87
2023/07/10 10:05:57;;;;;;;3.22;3.03;;;;;;;;;;6156108;23;20163;-87
2023/07/10 10:08:28;;;;;;;3.35;3.15;;;;;;;;;;6156347;23;20191;-88
2023/07/10 10:11:04;;;;;;;3.53;3.25;;;;;;;;;;6155690;23;20225;-87
2023/07/10 10:13:34;;;;;;;3.78;3.47;;;;;;;;;;6154802;23;20197;-87
2023/07/10 10:16:06;;;;;;;4.07;3.00;;;;;;;;;;6156137;23;20250;-86
2023/07/10 10:18:44;;;;;;;5.70;3.67;;;;;;;;;;6156206;23;20790;-86
2023/07/10 10:21:14;;;;;;;3.25;2.95;;;;;;;;;;6155669;23;20274;-86
2023/07/10 10:23:44;;;;;;;3.80;3.25;;;;;;;;;;6154704;23;20209;-86
2023/07/10 10:30:24;;;;;;;2.53;2.33;;;;;;;;;;6158884;23;20213;-87
2023/07/10 10:33:02;;;;;;;2.85;2.63;;;;;;;;;;6182777;23;20183;-87
2023/07/10 10:35:44;;;;;;;2.95;2.65;;;;;;;;;;6184988;23;20164;-87
2023/07/10 10:38:25;;;;;;;3.60;3.08;;;;;;;;;;6186118;23;20186;-85
2023/07/10 10:41:01;;;;;;;3.15;2.95;;;;;;;;;;6185806;23;20194;-87
2023/07/10 10:43:53;;;;;;;3.90;3.40;;;;;;;;;;6186650;23;20245;-86
2023/07/10 10:46:35;;;;;;;2.80;2.60;;;;;;;;;;6181064;23;20174;-87
2023/07/10 10:49:35;;;;;;;2.90;2.70;;;;;;;;;;6187778;23;20182;-86
2023/07/10 10:52:12;;;;;;;3.30;3.05;;;;;;;;;;6186778;23;20199;-87
2023/07/10 10:54:52;;;;;;;3.33;3.05;;;;;;;;;;6187210;23;20233;-86
2023/07/10 10:57:40;;;;;;;2.85;2.35;;;;;;;;;;6186960;23;20217;-87
2023/07/10 11:00:23;;;;;;;3.72;3.42;;;;;;;;;;6187449;23;20208;-87
2023/07/10 11:03:04;;;;;;;3.58;3.28;;;;;;;;;;6187740;23;20678;-87
2023/07/10 11:05:39;;;;;;;8.90;4.25;;;;;;;;;;6187621;23;20662;-87
2023/07/10 11:08:14;;;;;;;2.97;2.78;;;;;;;;;;6187138;23;20189;-87
2023/07/10 11:10:43;;;;;;;3.28;3.03;;;;;;;;;;6187369;23;20208;-88
2023/07/10 11:13:25;;;;;;;5.85;3.47;;;;;;;;;;6186829;23;20174;-86
2023/07/10 11:15:53;;;;;;;3.15;2.90;;;;;;;;;;6187179;23;20241;-87
2023/07/10 11:18:21;;;;;;;3.80;3.10;;;;;;;;;;6187351;23;20206;-86
2023/07/10 11:20:50;;;;;;;3.78;2.90;;;;;;;;;;6187292;23;20241;-86
2023/07/10 11:23:34;;;;;;;2.70;2.50;;;;;;;;;;6186473;23;20229;-87
2023/07/10 11:26:08;;;;;;;4.03;2.60;;;;;;;;;;6186509;23;20165;-87
2023/07/10 11:28:35;;;;;;;3.55;2.78;;;;;;;;;;6187155;23;20189;-86
2023/07/10 11:31:35;;;;;;;3.47;2.63;;;;;;;;;;6187189;23;20526;-87
2023/07/10 11:34:52;;;;;;;4.75;2.83;;;;;;;;;;6187076;23;20173;-88
2023/07/10 11:38:17;;;;;;;2.45;2.33;;;;;;;;;;6186315;23;20230;-88
2023/07/10 11:41:09;;;;;;;2.85;2.65;;;;;;;;;;6125421;23;20194;-86
2023/07/10 11:43:57;;;;;;;2.20;2.05;;;;;;;;;;6186596;23;20159;-88
2023/07/10 11:46:32;;;;;;;2.97;2.78;;;;;;;;;;6186586;23;20253;-88
2023/07/10 11:49:13;;;;;;;3.03;2.83;;;;;;;;;;6186080;23;20182;-84
2023/07/10 11:51:41;;;;;;;3.20;3.00;;;;;;;;;;6186828;23;20226;-87
2023/07/10 11:55:00;;;;;;;3.95;2.85;;;;;;;;;;6186478;23;20178;-87
2023/07/10 11:57:31;;;;;;;3.85;3.00;;;;;;;;;;6186119;23;20179;-85
2023/07/10 12:00:01;;;;;;;2.60;2.40;;;;;;;;;;6185567;23;20255;-88
2023/07/10 12:02:37;;;;;;;2.90;2.50;;;;;;;;;;6187011;23;20181;-88
2023/07/10 12:05:14;;;;;;;3.22;2.35;;;;;;;;;;6186125;23;20556;-88
2023/07/10 12:07:56;;;;;;;2.97;2.65;;;;;;;;;;6185839;23;20154;-88
2023/07/10 12:10:24;;;;;;;2.63;2.42;;;;;;;;;;6185600;23;20202;-88
2023/07/10 12:12:53;;;;;;;2.95;2.75;;;;;;;;;;6185689;23;20262;-88
2023/07/10 12:15:21;;;;;;;3.00;2.72;;;;;;;;;;6187077;23;20568;-87
2023/07/10 12:17:51;;;;;;;3.00;2.80;;;;;;;;;;6186292;23;20253;-85
2023/07/10 12:20:30;;;;;;;2.95;2.65;;;;;;;;;;6186647;23;20194;-87
2023/07/10 12:23:05;;;;;;;3.55;3.10;;;;;;;;;;6186736;23;20158;-88
2023/07/10 12:25:32;;;;;;;3.10;2.75;;;;;;;;;;6186340;23;20166;-88
2023/07/10 12:28:04;;;;;;;3.08;2.88;;;;;;;;;;6185771;23;20502;-88
2023/07/10 12:30:32;;;;;;;2.47;2.28;;;;;;;;;;6186122;23;20208;-88
2023/07/10 12:33:01;;;;;;;3.65;2.50;;;;;;;;;;6186631;23;20645;-88
2023/07/10 12:35:33;;;;;;;2.63;2.42;;;;;;;;;;6186452;23;20261;-87
2023/07/10 12:38:01;;;;;;;2.53;2.33;;;;;;;;;;6186641;23;20234;-88
2023/07/10 12:40:29;;;;;;;2.28;2.10;;;;;;;;;;6186093;23;20577;-88
2023/07/10 12:43:08;;;;;;;2.80;2.60;;;;;;;;;;6186624;23;20182;-88
2023/07/10 12:45:39;;;;;;;2.63;2.30;;;;;;;;;;6186678;23;20193;-88
2023/07/10 12:48:12;;;;;;;2.88;2.67;;;;;;;;;;6185511;23;20178;-88
2023/07/10 12:50:45;;;;;;;4.53;3.30;;;;;;;;;;6186341;23;20661;-86
2023/07/10 12:53:20;;;;;;;2.92;2.50;;;;;;;;;;6186561;23;20234;-86
2023/07/10 12:55:51;;;;;;;2.35;2.15;;;;;;;;;;6186512;23;20165;-87
2023/07/10 12:58:20;;;;;;;3.67;3.05;;;;;;;;;;6186313;23;20235;-86
2023/07/10 13:00:50;;;;;;;2.63;2.42;;;;;;;;;;6185822;23;20290;-86
2023/07/10 13:03:26;;;;;;;2.40;2.22;;;;;;;;;;6186687;23;20257;-86
2023/07/10 13:05:58;;;;;;;3.00;2.70;;;;;;;;;;6188706;23;20237;-86
2023/07/10 13:08:38;;;;;;;2.83;2.60;;;;;;;;;;6187223;23;20244;-86
2023/07/10 13:11:06;;;;;;;2.50;2.30;;;;;;;;;;6187480;23;20251;-86
2023/07/10 13:13:40;;;;;;;2.72;2.53;;;;;;;;;;6186495;23;20174;-87
2023/07/10 13:16:18;;;;;;;2.88;2.58;;;;;;;;;;6186518;23;20162;-85
2023/07/10 13:18:46;;;;;;;2.78;2.20;;;;;;;;;;6186609;23;20165;-87
2023/07/10 13:21:16;;;;;;;3.22;2.50;;;;;;;;;;6186427;23;20195;-85
2023/07/10 13:23:44;;;;;;;2.80;2.60;;;;;;;;;;6186221;23;20173;-87
2023/07/10 13:26:18;;;;;;;2.88;2.58;;;;;;;;;;6186700;23;20206;-85
2023/07/10 13:28:48;;;;;;;2.90;2.70;;;;;;;;;;6184671;23;20170;-87
2023/07/10 13:31:17;;;;;;;2.85;2.65;;;;;;;;;;6186553;23;20269;-87
2023/07/10 13:33:45;;;;;;;2.15;1.98;;;;;;;;;;6186410;23;20257;-86
2023/07/10 13:36:16;;;;;;;2.08;1.98;;;;;;;;;;6186134;23;20220;-85
2023/07/10 13:38:44;;;;;;;2.20;2.00;;;;;;;;;;6186607;23;20238;-84
2023/07/10 13:41:15;;;;;;;2.15;1.95;;;;;;;;;;6187812;23;20587;-84
2023/07/10 13:43:43;;;;;;;2.55;2.35;;;;;;;;;;6188123;23;20261;-86
2023/07/10 13:46:21;;;;;;;2.67;2.47;;;;;;;;;;6189327;23;20209;-84
2023/07/10 13:48:50;;;;;;;2.70;2.50;;;;;;;;;;6189555;23;20190;-84
2023/07/10 13:51:18;;;;;;;2.50;2.35;;;;;;;;;;6190233;23;20281;-85
2023/07/10 13:53:46;;;;;;;2.10;1.90;;;;;;;;;;6189238;23;20174;-84
2023/07/10 13:56:17;;;;;;;2.33;2.13;;;;;;;;;;6191241;23;20262;-85
2023/07/10 13:58:45;;;;;;;2.60;2.40;;;;;;;;;;6189507;23;20194;-85
2023/07/10 14:01:15;;;;;;;2.78;2.58;;;;;;;;;;6190419;23;20711;-83
2023/07/10 14:03:45;;;;;;;2.17;2.00;;;;;;;;;;6191574;23;20534;-84
2023/07/10 14:06:30;;;;;;;2.67;2.47;;;;;;;;;;6189769;23;20170;-84
2023/07/10 14:09:00;;;;;;;2.67;2.25;;;;;;;;;;6188862;23;20245;-84
2023/07/10 14:11:28;;;;;;;4.00;2.40;;;;;;;;;;6192194;23;20262;-83
2023/07/10 14:13:56;;;;;;;3.25;2.75;;;;;;;;;;6195465;23;20261;-83
2023/07/10 14:16:27;;;;;;;2.78;2.58;;;;;;;;;;6195576;23;20189;-83
2023/07/10 14:18:55;;;;;;;3.67;2.60;;;;;;;;;;6195176;23;20205;-84
2023/07/10 14:21:23;;;;;;;2.75;2.55;;;;;;;;;;6196083;23;20217;-83
2023/07/10 14:23:50;;;;;;;2.88;2.60;;;;;;;;;;6195514;23;20257;-84
2023/07/10 14:26:23;;;;;;;3.20;2.30;;;;;;;;;;6194971;23;20188;-83
2023/07/10 14:28:51;;;;;;;3.15;2.95;;;;;;;;;;6193671;23;20238;-84
2023/07/10 14:31:20;;;;;;;2.95;2.40;;;;;;;;;;6195011;23;20202;-85
2023/07/10 14:33:49;;;;;;;2.92;2.72;;;;;;;;;;6194083;23;20261;-84
2023/07/10 14:36:18;;;;;;;2.40;2.20;;;;;;;;;;6193009;23;20202;-84
2023/07/10 14:38:46;;;;;;;2.45;2.33;;;;;;;;;;6195478;23;20205;-83
2023/07/10 14:41:16;;;;;;;2.50;2.30;;;;;;;;;;6195579;23;20225;-85
2023/07/10 14:43:45;;;;;;;2.70;2.22;;;;;;;;;;6195446;23;20218;-82
2023/07/10 14:46:16;;;;;;;2.80;2.60;;;;;;;;;;6195242;23;20679;-83
2023/07/10 14:48:45;;;;;;;3.55;3.28;;;;;;;;;;6196670;23;20174;-84
2023/07/10 14:51:13;;;;;;;2.53;2.33;;;;;;;;;;6195238;23;20198;-82
2023/07/10 14:53:41;;;;;;;2.60;2.40;;;;;;;;;;6196348;23;20213;-84
2023/07/10 14:56:15;;;;;;;2.60;2.40;;;;;;;;;;6196312;23;20237;-84
2023/07/10 14:58:43;;;;;;;3.08;2.78;;;;;;;;;;6196860;23;20186;-82
2023/07/10 15:01:16;;;;;;;2.80;2.60;;;;;;;;;;6193838;23;20261;-83
2023/07/10 15:03:44;;;;;;;3.88;3.30;;;;;;;;;;6194056;23;20649;-84
2023/07/10 15:06:23;;;;;;;2.63;2.40;;;;;;;;;;6194540;23;20296;-84
2023/07/10 15:08:52;;;;;;;3.33;2.38;;;;;;;;;;6193994;23;20241;-85
2023/07/10 15:11:21;;;;;;;2.22;2.03;;;;;;;;;;6192197;23;20209;-84
2023/07/10 15:13:48;;;;;;;2.55;2.35;;;;;;;;;;6192665;23;20249;-84
2023/07/10 15:16:20;;;;;;;3.22;2.92;;;;;;;;;;6197216;23;20226;-82
2023/07/10 15:18:48;;;;;;;2.92;2.72;;;;;;;;;;6199256;23;20170;-83
2023/07/10 15:21:19;;;;;;;2.42;2.17;;;;;;;;;;6199019;23;20218;-82
2023/07/10 15:23:47;;;;;;;4.57;2.97;;;;;;;;;;6196822;23;20189;-81
2023/07/10 15:26:15;;;;;;;2.88;2.50;;;;;;;;;;6198405;23;20648;-82
2023/07/10 15:28:42;;;;;;;2.53;2.28;;;;;;;;;;6196641;23;20178;-82
2023/07/10 15:31:11;;;;;;;2.22;1.95;;;;;;;;;;6197711;23;20202;-83
2023/07/10 15:33:42;;;;;;;2.20;2.10;;;;;;;;;;6197833;23;20198;-83
2023/07/10 15:36:19;;;;;;;2.47;2.28;;;;;;;;;;6198946;23;20187;-83
2023/07/10 15:38:46;;;;;;;2.50;2.30;;;;;;;;;;6198144;23;20194;-83
2023/07/10 15:41:23;;;;;;;2.47;2.17;;;;;;;;;;6198255;23;20194;-83
2023/07/10 15:43:51;;;;;;;2.60;2.40;;;;;;;;;;6196516;23;20614;-83
2023/07/10 15:46:18;;;;;;;2.25;2.10;;;;;;;;;;6196665;23;20566;-84
2023/07/10 15:48:46;;;;;;;1.95;1.85;;;;;;;;;;6196405;23;20198;-82
2023/07/10 15:51:23;;;;;;;1.90;1.80;;;;;;;;;;6195910;23;20198;-83
2023/07/10 15:53:50;;;;;;;1.85;1.75;;;;;;;;;;6197646;23;20162;-83
2023/07/10 15:56:18;;;;;;;3.00;2.22;;;;;;;;;;6196906;23;20253;-83
2023/07/10 15:58:45;;;;;;;2.03;1.65;;;;;;;;;;6197166;23;20680;-83
2023/07/10 16:01:18;;;;;;;2.00;1.90;;;;;;;;;;6196604;23;20281;-83
2023/07/10 16:03:46;;;;;;;2.45;2.25;;;;;;;;;;6195942;23;20190;-82
2023/07/10 16:06:13;;;;;;;2.28;2.08;;;;;;;;;;6197145;23;20189;-83
2023/07/10 16:08:42;;;;;;;2.13;1.92;;;;;;;;;;6197719;23;20185;-82
2023/07/10 16:11:17;;;;;;;2.42;2.03;;;;;;;;;;6196944;23;20198;-82
2023/07/10 16:13:46;;;;;;;1.85;1.75;;;;;;;;;;6196506;23;20162;-82
2023/07/10 16:16:13;;;;;;;2.28;2.00;;;;;;;;;;6196369;23;20227;-82
2023/07/10 16:18:41;;;;;;;2.10;1.90;;;;;;;;;;6196397;23;20185;-83
2023/07/10 16:21:15;;;;;;;1.58;1.48;;;;;;;;;;6197718;23;20206;-83
2023/07/10 16:23:45;;;;;;;2.00;1.80;;;;;;;;;;6198631;23;20190;-83
2023/07/10 16:26:14;;;;;;;2.00;1.70;;;;;;;;;;6196934;23;20206;-83
2023/07/10 16:28:41;;;;;;;1.30;1.23;;;;;;;;;;6197201;23;20174;-82
2023/07/10 16:31:13;;;;;;;1.92;1.83;;;;;;;;;;6196967;23;20281;-83
2023/07/10 16:33:41;;;;;;;1.70;1.60;;;;;;;;;;6197691;23;20163;-82
2023/07/10 16:36:13;;;;;;;2.25;1.50;;;;;;;;;;6198332;23;20185;-83
2023/07/10 16:38:40;;;;;;;2.10;1.90;;;;;;;;;;6197473;23;20179;-82
2023/07/10 16:41:15;;;;;;;1.63;1.52;;;;;;;;;;6196097;23;20221;-83
2023/07/10 16:43:42;;;;;;;2.92;2.13;;;;;;;;;;6196007;23;20170;-81
2023/07/10 16:46:11;;;;;;;1.55;1.45;;;;;;;;;;6197218;23;20198;-84
2023/07/10 16:48:38;;;;;;;1.90;1.38;;;;;;;;;;6196150;23;20174;-82
2023/07/10 16:51:14;;;;;;;2.20;2.10;;;;;;;;;;6195788;23;20225;-82
2023/07/10 16:53:43;;;;;;;1.73;1.63;;;;;;;;;;6196276;23;20196;-82
2023/07/10 16:56:17;;;;;;;2.05;1.92;;;;;;;;;;6194671;23;20217;-82
2023/07/10 16:58:46;;;;;;;1.90;1.80;;;;;;;;;;6195169;23;20172;-82
2023/07/10 17:01:20;;;;;;;1.83;1.65;;;;;;;;;;6195369;23;20203;-81
2023/07/10 17:03:49;;;;;;;2.50;1.73;;;;;;;;;;6197294;23;20195;-82
2023/07/10 17:06:18;;;;;;;1.85;1.58;;;;;;;;;;6196466;23;20257;-83